sensor_id;sensor_type;location;lat;lon;timestamp;pressure;altitude;pressure_sealevel;temperature;humidity
49945;BME280;35838;49.134;9.212;2022-11-15T00:00:58;99638.78;;;11.58;69.21
49945;BME280;35838;49.134;9.212;2022-11-15T00:02:32;99638.69;;;11.64;69.49
49945;BME280;35838;49.134;9.212;2022-11-15T00:04:06;99632.78;;;11.54;69.09
49945;BME280;35838;49.134;9.212;2022-11-15T00:05:41;99627.56;;;11.54;69.40
49945;BME280;35838;49.134;9.212;2022-11-15T00:07:15;99629.44;;;11.44;69.72
49945;BME280;35838;49.134;9.212;2022-11-15T00:08:49;99626.00;;;11.39;69.84
49945;BME280;35838;49.134;9.212;2022-11-15T00:10:20;99625.94;;;11.47;69.99
49945;BME280;35838;49.134;9.212;2022-11-15T00:11:54;99624.94;;;11.56;69.75
49945;BME280;35838;49.134;9.212;2022-11-15T00:13:29;99622.38;;;11.54;69.46
49945;BME280;35838;49.134;9.212;2022-11-15T00:15:01;99619.69;;;11.60;69.45
49945;BME280;35838;49.134;9.212;2022-11-15T00:16:35;99625.69;;;11.64;69.22
49945;BME280;35838;49.134;9.212;2022-11-15T00:18:12;99623.91;;;11.69;69.15
49945;BME280;35838;49.134;9.212;2022-11-15T00:19:49;99620.44;;;11.70;69.15
49945;BME280;35838;49.134;9.212;2022-11-15T00:21:23;99626.50;;;11.71;68.80
49945;BME280;35838;49.134;9.212;2022-11-15T00:22:58;99621.41;;;11.62;68.54
49945;BME280;35838;49.134;9.212;2022-11-15T00:24:32;99625.69;;;11.66;68.82
49945;BME280;35838;49.134;9.212;2022-11-15T00:26:06;99619.66;;;11.64;69.21
49945;BME280;35838;49.134;9.212;2022-11-15T00:27:40;99625.75;;;11.61;69.04
49945;BME280;35838;49.134;9.212;2022-11-15T00:29:16;99620.56;;;11.59;68.90
49945;BME280;35838;49.134;9.212;2022-11-15T00:30:50;99621.38;;;11.65;69.04
49945;BME280;35838;49.134;9.212;2022-11-15T00:32:24;99623.03;;;11.69;69.07
49945;BME280;35838;49.134;9.212;2022-11-15T00:33:55;99619.66;;;11.64;68.61
49945;BME280;35838;49.134;9.212;2022-11-15T00:35:34;99620.44;;;11.69;68.69
49945;BME280;35838;49.134;9.212;2022-11-15T00:37:08;99617.00;;;11.68;68.65
49945;BME280;35838;49.134;9.212;2022-11-15T00:38:42;99614.47;;;11.64;68.47
49945;BME280;35838;49.134;9.212;2022-11-15T00:40:16;99617.97;;;11.59;68.89
49945;BME280;35838;49.134;9.212;2022-11-15T00:41:50;99617.09;;;11.60;69.08
49945;BME280;35838;49.134;9.212;2022-11-15T00:43:24;99619.69;;;11.60;68.82
49945;BME280;35838;49.134;9.212;2022-11-15T00:44:58;99612.78;;;11.58;69.08
49945;BME280;35838;49.134;9.212;2022-11-15T00:46:32;99608.47;;;11.57;69.03
49945;BME280;35838;49.134;9.212;2022-11-15T00:48:07;99608.50;;;11.55;68.83
49945;BME280;35838;49.134;9.212;2022-11-15T00:49:41;99604.06;;;11.64;68.95
49945;BME280;35838;49.134;9.212;2022-11-15T00:51:17;99604.06;;;11.64;68.91
49945;BME280;35838;49.134;9.212;2022-11-15T00:52:51;99604.09;;;11.62;68.87
49945;BME280;35838;49.134;9.212;2022-11-15T00:54:25;99606.63;;;11.67;68.69
49945;BME280;35838;49.134;9.212;2022-11-15T00:55:59;99599.75;;;11.59;68.91
49945;BME280;35838;49.134;9.212;2022-11-15T00:57:31;99599.78;;;11.58;69.00
49945;BME280;35838;49.134;9.212;2022-11-15T00:59:05;99598.06;;;11.57;69.11
49945;BME280;35838;49.134;9.212;2022-11-15T01:00:38;99603.19;;;11.65;68.63
49945;BME280;35838;49.134;9.212;2022-11-15T01:02:10;99601.50;;;11.62;68.89
49945;BME280;35838;49.134;9.212;2022-11-15T01:03:44;99595.47;;;11.57;68.97
49945;BME280;35838;49.134;9.212;2022-11-15T01:05:18;99597.31;;;11.49;68.86
49945;BME280;35838;49.134;9.212;2022-11-15T01:06:52;99598.97;;;11.54;68.93
49945;BME280;35838;49.134;9.212;2022-11-15T01:08:26;99591.16;;;11.57;68.87
49945;BME280;35838;49.134;9.212;2022-11-15T01:10:00;99586.88;;;11.53;68.79
49945;BME280;35838;49.134;9.212;2022-11-15T01:11:34;99586.91;;;11.52;69.12
49945;BME280;35838;49.134;9.212;2022-11-15T01:13:08;99580.81;;;11.51;69.11
49945;BME280;35838;49.134;9.212;2022-11-15T01:14:42;99573.88;;;11.53;69.05
49945;BME280;35838;49.134;9.212;2022-11-15T01:16:18;99575.66;;;11.50;68.94
49945;BME280;35838;49.134;9.212;2022-11-15T01:17:52;99566.09;;;11.52;68.82
49945;BME280;35838;49.134;9.212;2022-11-15T01:19:23;99569.59;;;11.49;69.20
49945;BME280;35838;49.134;9.212;2022-11-15T01:20:57;99567.88;;;11.48;68.89
49945;BME280;35838;49.134;9.212;2022-11-15T01:22:31;99572.25;;;11.43;68.77
49945;BME280;35838;49.134;9.212;2022-11-15T01:24:06;99567.13;;;11.40;69.01
49945;BME280;35838;49.134;9.212;2022-11-15T01:25:40;99571.44;;;11.41;68.78
49945;BME280;35838;49.134;9.212;2022-11-15T01:27:11;99568.22;;;11.20;69.43
49945;BME280;35838;49.134;9.212;2022-11-15T01:28:45;99569.19;;;11.11;69.75
49945;BME280;35838;49.134;9.212;2022-11-15T01:30:17;99567.47;;;11.09;69.98
49945;BME280;35838;49.134;9.212;2022-11-15T01:31:53;99564.97;;;11.03;70.42
49945;BME280;35838;49.134;9.212;2022-11-15T01:33:27;99556.22;;;11.10;71.79
49945;BME280;35838;49.134;9.212;2022-11-15T01:34:59;99556.34;;;10.97;72.98
49945;BME280;35838;49.134;9.212;2022-11-15T01:36:33;99560.75;;;10.92;74.11
49945;BME280;35838;49.134;9.212;2022-11-15T01:38:10;99554.91;;;10.73;74.19
49945;BME280;35838;49.134;9.212;2022-11-15T01:39:44;99562.69;;;10.72;74.48
49945;BME280;35838;49.134;9.212;2022-11-15T01:41:20;99568.09;;;10.50;74.91
49945;BME280;35838;49.134;9.212;2022-11-15T01:42:55;99563.81;;;10.47;74.85
49945;BME280;35838;49.134;9.212;2022-11-15T01:44:45;99562.00;;;10.54;75.00
49945;BME280;35838;49.134;9.212;2022-11-15T01:46:26;99566.47;;;10.32;75.57
49945;BME280;35838;49.134;9.212;2022-11-15T01:48:01;99558.72;;;10.27;76.28
49945;BME280;35838;49.134;9.212;2022-11-15T01:49:37;99550.91;;;10.38;76.06
49945;BME280;35838;49.134;9.212;2022-11-15T01:51:11;99554.56;;;10.12;76.31
49945;BME280;35838;49.134;9.212;2022-11-15T01:52:47;99567.56;;;10.04;76.72
49945;BME280;35838;49.134;9.212;2022-11-15T01:54:24;99562.44;;;9.98;77.36
49945;BME280;35838;49.134;9.212;2022-11-15T01:55:56;99548.59;;;9.96;77.60
49945;BME280;35838;49.134;9.212;2022-11-15T01:57:30;99553.84;;;9.87;77.67
49945;BME280;35838;49.134;9.212;2022-11-15T01:59:06;99551.31;;;9.78;78.41
49945;BME280;35838;49.134;9.212;2022-11-15T02:00:39;99551.31;;;9.78;78.56
49945;BME280;35838;49.134;9.212;2022-11-15T02:02:13;99551.38;;;9.70;78.83
49945;BME280;35838;49.134;9.212;2022-11-15T02:03:50;99547.94;;;9.66;78.87
49945;BME280;35838;49.134;9.212;2022-11-15T02:05:25;99551.34;;;9.73;78.60
49945;BME280;35838;49.134;9.212;2022-11-15T02:06:59;99551.38;;;9.70;78.85
49945;BME280;35838;49.134;9.212;2022-11-15T02:08:33;99547.88;;;9.79;78.49
49945;BME280;35838;49.134;9.212;2022-11-15T02:10:11;99552.22;;;9.72;78.47
49945;BME280;35838;49.134;9.212;2022-11-15T02:11:46;99551.34;;;9.73;78.50
49945;BME280;35838;49.134;9.212;2022-11-15T02:13:21;99551.47;;;9.56;78.91
49945;BME280;35838;49.134;9.212;2022-11-15T02:14:55;99541.13;;;9.48;79.57
49945;BME280;35838;49.134;9.212;2022-11-15T02:16:31;99542.03;;;9.43;79.88
49945;BME280;35838;49.134;9.212;2022-11-15T02:18:15;99540.31;;;9.37;80.33
49945;BME280;35838;49.134;9.212;2022-11-15T02:22:17;99533.38;;;9.47;79.39
49945;BME280;35838;49.134;9.212;2022-11-15T02:24:13;99531.69;;;9.41;79.49
49945;BME280;35838;49.134;9.212;2022-11-15T02:26:01;99534.25;;;9.39;79.54
49945;BME280;35838;49.134;9.212;2022-11-15T02:27:56;99522.22;;;9.34;79.87
49945;BME280;35838;49.134;9.212;2022-11-15T02:29:54;99521.31;;;9.39;80.28
49945;BME280;35838;49.134;9.212;2022-11-15T02:31:41;99519.63;;;9.35;80.08
49945;BME280;35838;49.134;9.212;2022-11-15T02:33:27;99520.47;;;9.36;80.25
49945;BME280;35838;49.134;9.212;2022-11-15T02:35:11;99521.31;;;9.43;79.70
49945;BME280;35838;49.134;9.212;2022-11-15T02:36:58;99520.50;;;9.34;80.14
49945;BME280;35838;49.134;9.212;2022-11-15T02:38:40;99519.63;;;9.35;80.30
49945;BME280;35838;49.134;9.212;2022-11-15T02:40:35;99525.66;;;9.31;80.62
49945;BME280;35838;49.134;9.212;2022-11-15T02:42:15;99522.13;;;9.49;80.06
49945;BME280;35838;49.134;9.212;2022-11-15T02:44:04;99519.66;;;9.31;80.12
49945;BME280;35838;49.134;9.212;2022-11-15T02:45:44;99517.06;;;9.34;80.69
49945;BME280;35838;49.134;9.212;2022-11-15T02:47:21;99509.22;;;9.45;80.54
49945;BME280;35838;49.134;9.212;2022-11-15T02:48:57;99511.81;;;9.45;80.37
49945;BME280;35838;49.134;9.212;2022-11-15T02:50:30;99507.50;;;9.44;80.34
49945;BME280;35838;49.134;9.212;2022-11-15T02:52:05;99510.94;;;9.46;80.32
49945;BME280;35838;49.134;9.212;2022-11-15T02:53:39;99505.69;;;9.53;80.38
49945;BME280;35838;49.134;9.212;2022-11-15T02:55:28;99513.53;;;9.46;80.35
49945;BME280;35838;49.134;9.212;2022-11-15T02:57:05;99503.13;;;9.49;80.51
49945;BME280;35838;49.134;9.212;2022-11-15T02:58:57;99505.91;;;9.21;81.00
49945;BME280;35838;49.134;9.212;2022-11-15T03:00:35;99503.22;;;9.33;80.84
49945;BME280;35838;49.134;9.212;2022-11-15T03:02:27;99508.34;;;9.46;80.49
49945;BME280;35838;49.134;9.212;2022-11-15T03:04:13;99501.44;;;9.45;80.36
49945;BME280;35838;49.134;9.212;2022-11-15T03:05:54;99501.41;;;9.51;80.18
49945;BME280;35838;49.134;9.212;2022-11-15T03:07:37;99510.88;;;9.55;80.11
49945;BME280;35838;49.134;9.212;2022-11-15T03:09:21;99498.91;;;9.35;80.41
49945;BME280;35838;49.134;9.212;2022-11-15T03:11:03;99507.50;;;9.44;80.31
49945;BME280;35838;49.134;9.212;2022-11-15T03:12:42;99499.66;;;9.50;79.82
49945;BME280;35838;49.134;9.212;2022-11-15T03:14:23;99500.59;;;9.43;79.87
49945;BME280;35838;49.134;9.212;2022-11-15T03:16:02;99491.88;;;9.53;79.89
49945;BME280;35838;49.134;9.212;2022-11-15T03:17:41;99498.72;;;9.65;79.69
49945;BME280;35838;49.134;9.212;2022-11-15T03:19:21;99497.91;;;9.60;79.57
49945;BME280;35838;49.134;9.212;2022-11-15T03:20:54;99492.69;;;9.64;79.42
49945;BME280;35838;49.134;9.212;2022-11-15T03:22:33;99486.59;;;9.65;79.20
49945;BME280;35838;49.134;9.212;2022-11-15T03:24:07;99482.28;;;9.70;79.06
49945;BME280;35838;49.134;9.212;2022-11-15T03:25:44;99482.25;;;9.75;78.99
49945;BME280;35838;49.134;9.212;2022-11-15T03:27:23;99476.19;;;9.73;78.98
49945;BME280;35838;49.134;9.212;2022-11-15T03:29:00;99483.91;;;9.79;78.79
49945;BME280;35838;49.134;9.212;2022-11-15T03:30:37;99486.53;;;9.81;78.97
49945;BME280;35838;49.134;9.212;2022-11-15T03:32:17;99482.16;;;9.84;78.72
49945;BME280;35838;49.134;9.212;2022-11-15T03:33:56;99475.25;;;9.86;78.64
49945;BME280;35838;49.134;9.212;2022-11-15T03:35:32;99480.44;;;9.83;78.83
49945;BME280;35838;49.134;9.212;2022-11-15T03:37:08;99469.19;;;9.83;79.11
49945;BME280;35838;49.134;9.212;2022-11-15T03:38:45;99472.72;;;9.79;79.01
49945;BME280;35838;49.134;9.212;2022-11-15T03:40:23;99472.75;;;9.71;78.89
49945;BME280;35838;49.134;9.212;2022-11-15T03:42:07;99476.28;;;9.62;79.28
49945;BME280;35838;49.134;9.212;2022-11-15T03:43:50;99467.59;;;9.66;79.23
49945;BME280;35838;49.134;9.212;2022-11-15T03:45:28;99475.38;;;9.68;79.20
49945;BME280;35838;49.134;9.212;2022-11-15T03:47:09;99468.47;;;9.65;79.50
49945;BME280;35838;49.134;9.212;2022-11-15T03:48:49;99469.34;;;9.66;79.38
49945;BME280;35838;49.134;9.212;2022-11-15T03:50:27;99478.94;;;9.53;79.49
49945;BME280;35838;49.134;9.212;2022-11-15T03:52:03;99470.25;;;9.57;79.63
49945;BME280;35838;49.134;9.212;2022-11-15T03:53:38;99468.53;;;9.57;79.76
49945;BME280;35838;49.134;9.212;2022-11-15T03:55:15;99467.66;;;9.60;79.74
49945;BME280;35838;49.134;9.212;2022-11-15T03:56:50;99464.25;;;9.55;79.89
49945;BME280;35838;49.134;9.212;2022-11-15T03:58:24;99464.28;;;9.49;80.28
49945;BME280;35838;49.134;9.212;2022-11-15T03:59:58;99472.06;;;9.44;80.61
49945;BME280;35838;49.134;9.212;2022-11-15T04:01:29;99465.28;;;9.23;81.32
49945;BME280;35838;49.134;9.212;2022-11-15T04:03:03;99465.22;;;9.35;81.37
49945;BME280;35838;49.134;9.212;2022-11-15T04:04:38;99468.72;;;9.33;81.26
49945;BME280;35838;49.134;9.212;2022-11-15T04:06:12;99470.38;;;9.40;81.26
49945;BME280;35838;49.134;9.212;2022-11-15T04:07:46;99465.22;;;9.38;81.45
49945;BME280;35838;49.134;9.212;2022-11-15T04:09:20;99471.22;;;9.47;81.25
49945;BME280;35838;49.134;9.212;2022-11-15T04:10:54;99468.63;;;9.44;80.90
49945;BME280;35838;49.134;9.212;2022-11-15T04:12:26;99466.09;;;9.37;81.36
49945;BME280;35838;49.134;9.212;2022-11-15T04:14:04;99461.69;;;9.50;81.02
49945;BME280;35838;49.134;9.212;2022-11-15T04:15:38;99467.72;;;9.51;81.12
49945;BME280;35838;49.134;9.212;2022-11-15T04:17:12;99467.81;;;9.38;81.25
49945;BME280;35838;49.134;9.212;2022-11-15T04:18:43;99467.84;;;9.31;81.70
49945;BME280;35838;49.134;9.212;2022-11-15T04:20:37;99463.44;;;9.45;81.34
49945;BME280;35838;49.134;9.212;2022-11-15T04:22:26;99472.88;;;9.54;80.96
49945;BME280;35838;49.134;9.212;2022-11-15T04:24:12;99469.47;;;9.44;80.71
49945;BME280;35838;49.134;9.212;2022-11-15T04:25:48;99460.91;;;9.37;80.67
49945;BME280;35838;49.134;9.212;2022-11-15T04:27:23;99460.13;;;9.18;81.88
49945;BME280;35838;49.134;9.212;2022-11-15T04:28:57;99457.47;;;9.32;81.49
49945;BME280;35838;49.134;9.212;2022-11-15T04:30:44;99463.44;;;9.45;80.97
49945;BME280;35838;49.134;9.212;2022-11-15T04:32:19;99454.81;;;9.41;81.06
49945;BME280;35838;49.134;9.212;2022-11-15T04:33:53;99451.34;;;9.44;81.38
49945;BME280;35838;49.134;9.212;2022-11-15T04:35:27;99462.47;;;9.57;80.63
49945;BME280;35838;49.134;9.212;2022-11-15T04:37:01;99456.53;;;9.47;80.62
49945;BME280;35838;49.134;9.212;2022-11-15T04:38:49;99459.09;;;9.49;80.52
49945;BME280;35838;49.134;9.212;2022-11-15T04:40:23;99450.38;;;9.59;80.21
49945;BME280;35838;49.134;9.212;2022-11-15T04:41:57;99455.56;;;9.59;80.60
49945;BME280;35838;49.134;9.212;2022-11-15T04:43:31;99446.94;;;9.57;80.44
49945;BME280;35838;49.134;9.212;2022-11-15T04:45:06;99440.84;;;9.66;80.31
49945;BME280;35838;49.134;9.212;2022-11-15T04:46:40;99452.03;;;9.69;80.11
49945;BME280;35838;49.134;9.212;2022-11-15T04:48:14;99448.59;;;9.67;79.92
49945;BME280;35838;49.134;9.212;2022-11-15T04:49:48;99444.25;;;9.71;79.82
49945;BME280;35838;49.134;9.212;2022-11-15T04:51:22;99441.69;;;9.68;80.01
49945;BME280;35838;49.134;9.212;2022-11-15T04:52:54;99442.66;;;9.56;80.31
49945;BME280;35838;49.134;9.212;2022-11-15T04:54:30;99441.75;;;9.60;80.81
49945;BME280;35838;49.134;9.212;2022-11-15T04:56:02;99431.38;;;9.60;80.58
49945;BME280;35838;49.134;9.212;2022-11-15T04:57:36;99426.97;;;9.70;80.34
49945;BME280;35838;49.134;9.212;2022-11-15T04:59:10;99433.03;;;9.70;80.27
49945;BME280;35838;49.134;9.212;2022-11-15T05:00:42;99423.56;;;9.66;80.19
49945;BME280;35838;49.134;9.212;2022-11-15T05:02:15;99432.16;;;9.70;80.22
49945;BME280;35838;49.134;9.212;2022-11-15T05:03:49;99420.03;;;9.75;80.17
49945;BME280;35838;49.134;9.212;2022-11-15T05:05:36;99426.97;;;9.73;80.43
49945;BME280;35838;49.134;9.212;2022-11-15T05:07:10;99431.22;;;9.80;80.34
49945;BME280;35838;49.134;9.212;2022-11-15T05:08:44;99426.06;;;9.79;80.62
49945;BME280;35838;49.134;9.212;2022-11-15T05:10:18;99426.03;;;9.82;80.58
49945;BME280;35838;49.134;9.212;2022-11-15T05:11:52;99426.06;;;9.76;80.94
49945;BME280;35838;49.134;9.212;2022-11-15T05:13:26;99432.13;;;9.76;81.40
49945;BME280;35838;49.134;9.212;2022-11-15T05:15:00;99420.03;;;9.75;81.28
49945;BME280;35838;49.134;9.212;2022-11-15T05:16:34;99421.78;;;9.73;80.94
49945;BME280;35838;49.134;9.212;2022-11-15T05:18:06;99423.47;;;9.76;81.38
49945;BME280;35838;49.134;9.212;2022-11-15T05:19:40;99418.31;;;9.74;82.37
49945;BME280;35838;49.134;9.212;2022-11-15T05:21:13;99414.88;;;9.74;83.17
49945;BME280;35838;49.134;9.212;2022-11-15T05:22:47;99418.31;;;9.74;83.26
49945;BME280;35838;49.134;9.212;2022-11-15T05:24:21;99422.75;;;9.61;82.37
49945;BME280;35838;49.134;9.212;2022-11-15T05:26:01;99418.47;;;9.55;82.02
49945;BME280;35838;49.134;9.212;2022-11-15T05:27:35;99425.34;;;9.61;81.96
49945;BME280;35838;49.134;9.212;2022-11-15T05:29:09;99416.69;;;9.62;82.39
49945;BME280;35838;49.134;9.212;2022-11-15T05:30:44;99417.56;;;9.61;82.68
49945;BME280;35838;49.134;9.212;2022-11-15T05:32:18;99418.47;;;9.55;82.54
49945;BME280;35838;49.134;9.212;2022-11-15T05:33:53;99410.72;;;9.51;82.59
49945;BME280;35838;49.134;9.212;2022-11-15T05:35:31;99406.44;;;9.51;82.97
49945;BME280;35838;49.134;9.212;2022-11-15T05:37:07;99411.59;;;9.51;83.17
49945;BME280;35838;49.134;9.212;2022-11-15T05:38:42;99413.44;;;9.38;82.74
49945;BME280;35838;49.134;9.212;2022-11-15T05:40:13;99405.69;;;9.32;83.02
49945;BME280;35838;49.134;9.212;2022-11-15T05:41:53;99406.53;;;9.37;82.88
49945;BME280;35838;49.134;9.212;2022-11-15T05:43:28;99410.84;;;9.38;82.97
49945;BME280;35838;49.134;9.212;2022-11-15T05:45:06;99401.34;;;9.36;83.12
49945;BME280;35838;49.134;9.212;2022-11-15T05:46:40;99407.38;;;9.38;83.05
49945;BME280;35838;49.134;9.212;2022-11-15T05:48:14;99408.31;;;9.29;83.24
49945;BME280;35838;49.134;9.212;2022-11-15T05:49:50;99409.19;;;9.28;83.58
49945;BME280;35838;49.134;9.212;2022-11-15T05:51:27;99408.25;;;9.35;83.26
49945;BME280;35838;49.134;9.212;2022-11-15T05:53:02;99409.13;;;9.31;83.48
49945;BME280;35838;49.134;9.212;2022-11-15T05:54:37;99407.44;;;9.29;83.88
49945;BME280;35838;49.134;9.212;2022-11-15T05:56:11;99408.34;;;9.21;83.87
49945;BME280;35838;49.134;9.212;2022-11-15T05:57:46;99411.81;;;9.20;84.21
49945;BME280;35838;49.134;9.212;2022-11-15T05:59:20;99414.41;;;9.16;84.05
49945;BME280;35838;49.134;9.212;2022-11-15T06:00:54;99411.84;;;9.11;84.19
49945;BME280;35838;49.134;9.212;2022-11-15T06:02:28;99404.94;;;9.10;84.37
49945;BME280;35838;49.134;9.212;2022-11-15T06:04:02;99413.59;;;9.07;84.54
49945;BME280;35838;49.134;9.212;2022-11-15T06:05:36;99413.59;;;9.09;84.85
49945;BME280;35838;49.134;9.212;2022-11-15T06:07:10;99411.88;;;9.06;84.87
49945;BME280;35838;49.134;9.212;2022-11-15T06:08:44;99410.16;;;9.07;84.92
49945;BME280;35838;49.134;9.212;2022-11-15T06:10:18;99411.88;;;9.08;84.84
49945;BME280;35838;49.134;9.212;2022-11-15T06:11:52;99413.59;;;9.09;85.18
49945;BME280;35838;49.134;9.212;2022-11-15T06:13:29;99407.59;;;9.02;85.42
49945;BME280;35838;49.134;9.212;2022-11-15T06:15:03;99410.19;;;9.04;85.43
49945;BME280;35838;49.134;9.212;2022-11-15T06:16:37;99414.50;;;9.03;85.39
49945;BME280;35838;49.134;9.212;2022-11-15T06:18:11;99412.78;;;8.96;85.51
49945;BME280;35838;49.134;9.212;2022-11-15T06:19:45;99410.22;;;8.96;85.57
49945;BME280;35838;49.134;9.212;2022-11-15T06:21:19;99406.78;;;8.94;85.98
49945;BME280;35838;49.134;9.212;2022-11-15T06:22:57;99410.22;;;8.94;85.64
49945;BME280;35838;49.134;9.212;2022-11-15T06:24:31;99411.09;;;8.92;85.89
49945;BME280;35838;49.134;9.212;2022-11-15T06:26:05;99405.94;;;8.92;86.25
49945;BME280;35838;49.134;9.212;2022-11-15T06:27:39;99413.69;;;8.90;86.44
49945;BME280;35838;49.134;9.212;2022-11-15T06:29:16;99402.47;;;8.90;86.13
49945;BME280;35838;49.134;9.212;2022-11-15T06:30:50;99405.94;;;8.89;86.30
49945;BME280;35838;49.134;9.212;2022-11-15T06:32:24;99407.66;;;8.90;86.39
49945;BME280;35838;49.134;9.212;2022-11-15T06:33:58;99405.94;;;8.89;86.37
49945;BME280;35838;49.134;9.212;2022-11-15T06:35:33;99405.94;;;8.89;86.77
49945;BME280;35838;49.134;9.212;2022-11-15T06:37:08;99404.25;;;8.85;86.75
49945;BME280;35838;49.134;9.212;2022-11-15T06:38:42;99408.59;;;8.81;87.00
49945;BME280;35838;49.134;9.212;2022-11-15T06:40:16;99414.59;;;8.82;87.24
49945;BME280;35838;49.134;9.212;2022-11-15T06:41:50;99411.09;;;8.90;86.71
49945;BME280;35838;49.134;9.212;2022-11-15T06:43:24;99417.16;;;8.86;86.98
49945;BME280;35838;49.134;9.212;2022-11-15T06:45:01;99413.72;;;8.87;87.09
49945;BME280;35838;49.134;9.212;2022-11-15T06:46:35;99414.56;;;8.88;87.29
49945;BME280;35838;49.134;9.212;2022-11-15T06:48:09;99424.00;;;8.95;87.17
49945;BME280;35838;49.134;9.212;2022-11-15T06:49:43;99416.22;;;9.00;87.05
49945;BME280;35838;49.134;9.212;2022-11-15T06:51:17;99419.69;;;8.97;87.00
49945;BME280;35838;49.134;9.212;2022-11-15T06:52:51;99417.97;;;8.99;86.90
49945;BME280;35838;49.134;9.212;2022-11-15T06:54:25;99425.75;;;8.94;87.68
49945;BME280;35838;49.134;9.212;2022-11-15T06:55:59;99424.00;;;8.95;87.80
49945;BME280;35838;49.134;9.212;2022-11-15T06:57:34;99423.16;;;8.96;87.59
49945;BME280;35838;49.134;9.212;2022-11-15T06:59:08;99426.63;;;8.97;87.95
49945;BME280;35838;49.134;9.212;2022-11-15T07:00:45;99426.63;;;8.97;88.01
49945;BME280;35838;49.134;9.212;2022-11-15T07:02:19;99424.88;;;9.00;88.21
49945;BME280;35838;49.134;9.212;2022-11-15T07:03:53;99430.88;;;9.08;88.06
49945;BME280;35838;49.134;9.212;2022-11-15T07:05:27;99425.69;;;9.08;88.19
49945;BME280;35838;49.134;9.212;2022-11-15T07:07:01;99421.31;;;9.14;87.75
49945;BME280;35838;49.134;9.212;2022-11-15T07:08:35;99420.47;;;9.13;87.87
49945;BME280;35838;49.134;9.212;2022-11-15T07:10:10;99410.97;;;9.14;87.90
49945;BME280;35838;49.134;9.212;2022-11-15T07:11:44;99411.81;;;9.19;87.90
49945;BME280;35838;49.134;9.212;2022-11-15T07:13:18;99417.00;;;9.16;87.93
49945;BME280;35838;49.134;9.212;2022-11-15T07:14:52;99422.13;;;9.22;87.80
49945;BME280;35838;49.134;9.212;2022-11-15T07:16:29;99423.00;;;9.27;87.75
49945;BME280;35838;49.134;9.212;2022-11-15T07:18:03;99416.94;;;9.28;87.78
49945;BME280;35838;49.134;9.212;2022-11-15T07:19:37;99420.38;;;9.32;87.39
49945;BME280;35838;49.134;9.212;2022-11-15T07:21:11;99421.25;;;9.29;87.47
49945;BME280;35838;49.134;9.212;2022-11-15T07:22:45;99422.16;;;9.23;87.68
49945;BME280;35838;49.134;9.212;2022-11-15T07:24:19;99424.66;;;9.31;87.62
49945;BME280;35838;49.134;9.212;2022-11-15T07:25:53;99429.88;;;9.28;87.89
49945;BME280;35838;49.134;9.212;2022-11-15T07:27:27;99429.94;;;9.19;88.22
49945;BME280;35838;49.134;9.212;2022-11-15T07:29:01;99426.50;;;9.17;88.89
49945;BME280;35838;49.134;9.212;2022-11-15T07:30:35;99431.59;;;9.28;88.95
49945;BME280;35838;49.134;9.212;2022-11-15T07:32:12;99423.84;;;9.26;88.93
49945;BME280;35838;49.134;9.212;2022-11-15T07:33:46;99430.72;;;9.30;89.30
49945;BME280;35838;49.134;9.212;2022-11-15T07:35:20;99436.75;;;9.38;89.31
49945;BME280;35838;49.134;9.212;2022-11-15T07:36:54;99422.88;;;9.46;89.24
49945;BME280;35838;49.134;9.212;2022-11-15T07:38:28;99432.34;;;9.48;88.48
49945;BME280;35838;49.134;9.212;2022-11-15T07:40:03;99432.28;;;9.54;88.43
49945;BME280;35838;49.134;9.212;2022-11-15T07:41:37;99427.94;;;9.58;88.37
49945;BME280;35838;49.134;9.212;2022-11-15T07:43:12;99429.66;;;9.59;88.52
49945;BME280;35838;49.134;9.212;2022-11-15T07:44:43;99435.63;;;9.67;88.38
49945;BME280;35838;49.134;9.212;2022-11-15T07:46:17;99433.88;;;9.71;88.36
49945;BME280;35838;49.134;9.212;2022-11-15T07:47:54;99432.13;;;9.76;88.24
49945;BME280;35838;49.134;9.212;2022-11-15T07:49:28;99436.41;;;9.79;88.10
49945;BME280;35838;49.134;9.212;2022-11-15T07:51:02;99435.50;;;9.86;87.87
49945;BME280;35838;49.134;9.212;2022-11-15T07:52:37;99440.63;;;9.91;87.60
49945;BME280;35838;49.134;9.212;2022-11-15T07:54:11;99439.72;;;9.96;87.33
49945;BME280;35838;49.134;9.212;2022-11-15T07:55:45;99438.00;;;9.95;87.69
49945;BME280;35838;49.134;9.212;2022-11-15T07:57:18;99441.50;;;9.93;86.32
49945;BME280;35838;49.134;9.212;2022-11-15T07:58:52;99445.72;;;10.01;85.95
49945;BME280;35838;49.134;9.212;2022-11-15T08:00:26;99442.22;;;10.07;86.16
49945;BME280;35838;49.134;9.212;2022-11-15T08:02:01;99437.84;;;10.14;86.46
49945;BME280;35838;49.134;9.212;2022-11-15T08:03:37;99436.94;;;10.16;86.10
49945;BME280;35838;49.134;9.212;2022-11-15T08:05:11;99435.16;;;10.20;86.25
49945;BME280;35838;49.134;9.212;2022-11-15T08:06:45;99431.69;;;10.23;86.05
49945;BME280;35838;49.134;9.212;2022-11-15T08:08:19;99439.41;;;10.27;85.67
49945;BME280;35838;49.134;9.212;2022-11-15T08:09:53;99432.50;;;10.28;85.14
49945;BME280;35838;49.134;9.212;2022-11-15T08:11:27;99432.44;;;10.34;84.72
49945;BME280;35838;49.134;9.212;2022-11-15T08:13:03;99439.31;;;10.37;84.48
49945;BME280;35838;49.134;9.212;2022-11-15T08:14:37;99438.44;;;10.42;84.32
49945;BME280;35838;49.134;9.212;2022-11-15T08:16:11;99433.25;;;10.44;84.32
49945;BME280;35838;49.134;9.212;2022-11-15T08:17:45;99427.16;;;10.45;84.05
49945;BME280;35838;49.134;9.212;2022-11-15T08:19:22;99434.94;;;10.46;84.48
49945;BME280;35838;49.134;9.212;2022-11-15T08:20:59;99427.09;;;10.49;83.88
49945;BME280;35838;49.134;9.212;2022-11-15T08:22:33;99428.84;;;10.49;84.08
49945;BME280;35838;49.134;9.212;2022-11-15T08:24:09;99419.38;;;10.46;84.06
49945;BME280;35838;49.134;9.212;2022-11-15T08:25:43;99426.22;;;10.50;83.87
49945;BME280;35838;49.134;9.212;2022-11-15T08:27:17;99421.03;;;10.50;83.53
49945;BME280;35838;49.134;9.212;2022-11-15T08:28:52;99421.88;;;10.56;83.35
49945;BME280;35838;49.134;9.212;2022-11-15T08:30:26;99418.41;;;10.55;83.08
49945;BME280;35838;49.134;9.212;2022-11-15T08:32:04;99420.06;;;10.61;81.99
49945;BME280;35838;49.134;9.212;2022-11-15T08:33:38;99412.31;;;10.59;81.71
49945;BME280;35838;49.134;9.212;2022-11-15T08:35:15;99411.56;;;10.48;81.52